createdAt,value
2023-04-20T00:12:02.224Z,3.00
2023-04-20T00:14:28.835Z,2.90
2023-04-20T00:16:55.790Z,2.80
2023-04-20T00:19:23.084Z,2.80
2023-04-20T00:21:49.941Z,2.70
2023-04-20T00:24:16.609Z,2.70
2023-04-20T00:26:43.256Z,2.60
2023-04-20T00:29:09.989Z,2.70
2023-04-20T00:31:36.620Z,2.70
2023-04-20T00:34:03.309Z,2.60
2023-04-20T00:36:29.906Z,2.50
2023-04-20T00:38:57.760Z,2.50
2023-04-20T00:41:24.699Z,2.50
2023-04-20T00:43:54.781Z,2.50
2023-04-20T00:46:21.986Z,2.40
2023-04-20T00:48:53.773Z,2.40
2023-04-20T00:51:22.593Z,2.30
2023-04-20T00:53:49.276Z,2.30
2023-04-20T00:56:19.324Z,2.30
2023-04-20T00:58:46.304Z,2.20
2023-04-20T01:01:17.617Z,2.10
2023-04-20T01:03:45.229Z,2.10
2023-04-20T01:06:13.744Z,2.00
2023-04-20T01:08:51.514Z,1.90
2023-04-20T01:11:18.420Z,1.80
2023-04-20T01:13:45.284Z,1.80
2023-04-20T01:16:12.755Z,1.80
2023-04-20T01:18:47.106Z,1.80
2023-04-20T01:21:14.813Z,1.80
2023-04-20T01:23:41.470Z,1.80
2023-04-20T01:26:09.787Z,1.80
2023-04-20T01:28:36.820Z,1.80
2023-04-20T01:31:05.846Z,1.80
2023-04-20T01:33:32.822Z,1.70
2023-04-20T01:35:59.481Z,1.80
2023-04-20T01:38:26.676Z,1.70
2023-04-20T01:40:54.464Z,1.70
2023-04-20T01:43:21.876Z,1.70
2023-04-20T01:45:48.573Z,1.60
2023-04-20T01:48:15.187Z,1.60
2023-04-20T01:50:41.795Z,1.50
2023-04-20T01:53:08.445Z,1.40
2023-04-20T01:55:35.819Z,1.40
2023-04-20T01:58:02.432Z,1.40
2023-04-20T02:00:29.107Z,1.50
2023-04-20T02:02:55.942Z,1.40
2023-04-20T02:05:22.834Z,1.40
2023-04-20T02:07:49.425Z,1.30
2023-04-20T02:10:16.000Z,1.30
2023-04-20T02:12:42.605Z,1.20
2023-04-20T02:15:09.602Z,1.20
2023-04-20T02:17:37.023Z,1.20
2023-04-20T02:20:09.056Z,1.20
2023-04-20T02:22:36.157Z,1.10
2023-04-20T02:25:04.822Z,1.10
2023-04-20T02:27:34.401Z,1.10
2023-04-20T02:30:01.107Z,1.20
2023-04-20T02:32:27.959Z,1.20
2023-04-20T02:34:54.623Z,1.10
2023-04-20T02:37:21.284Z,1.10
2023-04-20T02:39:47.921Z,1.00
2023-04-20T02:42:14.646Z,0.90
2023-04-20T02:44:41.253Z,0.90
2023-04-20T02:47:07.843Z,0.90
2023-04-20T02:49:34.732Z,0.90
2023-04-20T02:52:01.384Z,0.90
2023-04-20T02:54:28.016Z,0.90
2023-04-20T02:56:55.894Z,0.90
2023-04-20T02:59:24.019Z,0.80
2023-04-20T03:01:50.768Z,0.70
2023-04-20T03:04:17.882Z,0.80
2023-04-20T03:06:45.059Z,0.90
2023-04-20T03:09:11.664Z,0.80
2023-04-20T03:11:38.273Z,0.80
2023-04-20T03:14:04.952Z,0.80
2023-04-20T03:16:31.590Z,0.80
2023-04-20T03:18:59.324Z,0.70
2023-04-20T03:21:25.931Z,0.70
2023-04-20T03:23:52.588Z,0.70
2023-04-20T03:26:20.372Z,0.60
2023-04-20T03:28:47.214Z,0.60
2023-04-20T03:31:13.912Z,0.60
2023-04-20T03:33:40.610Z,0.50
2023-04-20T03:36:07.538Z,0.50
2023-04-20T03:38:34.124Z,0.50
2023-04-20T03:41:00.920Z,0.40
2023-04-20T03:43:27.521Z,0.40
2023-04-20T03:45:55.161Z,0.40
2023-04-20T03:48:21.789Z,0.50
2023-04-20T03:50:48.441Z,0.40
2023-04-20T03:53:15.023Z,0.40
2023-04-20T03:55:41.629Z,0.40
2023-04-20T03:58:08.824Z,0.40
2023-04-20T04:00:35.458Z,0.30
2023-04-20T04:03:02.151Z,0.30
2023-04-20T04:05:29.266Z,0.30
2023-04-20T04:07:55.922Z,0.20
2023-04-20T04:10:22.592Z,0.20
2023-04-20T04:12:49.221Z,0.20
2023-04-20T04:15:16.026Z,0.20
2023-04-20T04:17:42.681Z,0.20
2023-04-20T04:20:10.323Z,0.20
2023-04-20T04:22:37.241Z,0.20
2023-04-20T04:25:04.890Z,0.20
2023-04-20T04:27:34.834Z,0.20
2023-04-20T04:30:03.452Z,0.20
2023-04-20T04:32:30.454Z,0.20
2023-04-20T04:34:58.008Z,0.30
2023-04-20T04:37:24.748Z,0.30
2023-04-20T04:39:51.461Z,0.30
2023-04-20T04:42:18.190Z,0.30
2023-04-20T04:44:44.931Z,0.30
2023-04-20T04:47:14.473Z,0.30
2023-04-20T04:49:41.135Z,0.30
2023-04-20T04:52:09.935Z,0.30
2023-04-20T04:54:36.560Z,0.40
2023-04-20T04:57:03.271Z,0.40
2023-04-20T04:59:29.860Z,0.40
2023-04-20T05:01:56.551Z,0.40
2023-04-20T05:04:23.329Z,0.40
2023-04-20T05:06:50.001Z,0.50
2023-04-20T05:09:16.761Z,0.50
2023-04-20T05:11:43.671Z,0.60
2023-04-20T05:14:10.254Z,0.70
2023-04-20T05:16:36.872Z,0.80
2023-04-20T05:19:03.947Z,0.80
2023-04-20T05:21:30.899Z,0.90
2023-04-20T05:23:57.612Z,1.00
2023-04-20T05:26:24.281Z,1.10
2023-04-20T05:28:51.288Z,1.20
2023-04-20T05:31:17.951Z,1.20
2023-04-20T05:33:44.570Z,1.30
2023-04-20T05:36:11.297Z,1.40
2023-04-20T05:38:38.257Z,1.50
2023-04-20T05:41:05.004Z,1.70
2023-04-20T05:43:31.581Z,1.80
2023-04-20T05:45:58.598Z,2.00
2023-04-20T05:48:29.512Z,2.20
2023-04-20T05:50:56.843Z,2.20
2023-04-20T05:53:23.597Z,2.30
2023-04-20T05:55:50.281Z,2.50
2023-04-20T05:58:17.382Z,2.60
2023-04-20T06:00:44.410Z,2.70
2023-04-20T06:03:11.337Z,2.90
2023-04-20T06:05:38.333Z,3.00
2023-04-20T06:08:05.072Z,3.20
2023-04-20T06:10:33.984Z,3.30
2023-04-20T06:13:00.824Z,3.40
2023-04-20T06:15:27.594Z,3.60
2023-04-20T06:17:54.291Z,3.80
2023-04-20T06:20:21.116Z,3.90
2023-04-20T06:22:48.729Z,4.10
2023-04-20T06:25:15.639Z,4.30
2023-04-20T06:27:42.551Z,4.50
2023-04-20T06:30:09.837Z,4.70
2023-04-20T06:32:37.701Z,4.90
2023-04-20T06:35:05.193Z,5.10
2023-04-20T06:37:32.040Z,5.10
2023-04-20T06:39:58.855Z,5.20
2023-04-20T06:42:26.206Z,5.20
2023-04-20T06:44:52.847Z,5.20
2023-04-20T06:47:19.619Z,5.20
2023-04-20T06:49:46.406Z,5.30
2023-04-20T06:52:13.006Z,5.50
2023-04-20T06:54:39.595Z,5.70
2023-04-20T06:57:06.211Z,5.90
2023-04-20T06:59:33.188Z,6.00
2023-04-20T07:01:59.927Z,6.10
2023-04-20T07:04:26.989Z,6.30
2023-04-20T07:06:55.831Z,6.50
2023-04-20T07:09:23.062Z,6.50
2023-04-20T07:11:49.906Z,6.60
2023-04-20T07:14:16.600Z,6.50
2023-04-20T07:16:43.312Z,6.70
2023-04-20T07:19:10.077Z,6.70
2023-04-20T07:21:36.944Z,6.80
2023-04-20T07:24:03.926Z,6.90
2023-04-20T07:26:31.106Z,7.00
2023-04-20T07:28:57.715Z,7.20
2023-04-20T07:31:24.428Z,7.30
2023-04-20T07:33:51.076Z,7.40
2023-04-20T07:36:17.762Z,7.70
2023-04-20T07:38:44.391Z,7.80
2023-04-20T07:41:11.718Z,7.90
2023-04-20T07:43:39.073Z,8.00
2023-04-20T07:46:05.857Z,8.00
2023-04-20T07:48:34.216Z,8.00
2023-04-20T07:51:01.156Z,8.10
2023-04-20T07:53:31.236Z,8.10
2023-04-20T07:55:58.215Z,8.10
2023-04-20T07:58:24.844Z,8.20
2023-04-20T08:00:51.556Z,8.30
2023-04-20T08:03:18.466Z,8.40
2023-04-20T08:05:46.149Z,8.40
2023-04-20T08:08:12.988Z,8.40
2023-04-20T08:10:39.614Z,8.40
2023-04-20T08:13:06.195Z,8.30
2023-04-20T08:15:32.861Z,8.40
2023-04-20T08:17:59.495Z,8.40
2023-04-20T08:20:26.229Z,8.60
2023-04-20T08:22:53.260Z,8.70
2023-04-20T08:25:20.158Z,8.80
2023-04-20T08:27:46.962Z,9.00
2023-04-20T08:30:13.694Z,9.00
2023-04-20T08:32:40.957Z,9.10
2023-04-20T08:35:08.527Z,9.20
2023-04-20T08:37:35.759Z,9.30
2023-04-20T08:40:02.456Z,9.50
2023-04-20T08:42:29.124Z,9.50
2023-04-20T08:44:55.766Z,9.50
2023-04-20T08:47:22.791Z,9.50
2023-04-20T08:49:53.063Z,9.60
2023-04-20T08:52:19.710Z,9.50
2023-04-20T08:54:56.103Z,9.60
2023-04-20T08:57:25.692Z,9.60
2023-04-20T08:59:52.394Z,9.60
2023-04-20T09:02:19.192Z,9.50
2023-04-20T09:04:48.994Z,9.50
2023-04-20T09:07:20.934Z,9.50
2023-04-20T09:09:58.618Z,9.50
2023-04-20T09:12:25.846Z,9.50
2023-04-20T09:14:52.921Z,9.40
2023-04-20T09:17:31.683Z,9.40
2023-04-20T09:19:58.279Z,9.30
2023-04-20T09:22:36.424Z,9.20
2023-04-20T09:25:16.315Z,9.20
2023-04-20T09:27:43.134Z,9.20
2023-04-20T09:30:10.210Z,9.20
2023-04-20T09:32:36.866Z,9.30
2023-04-20T09:35:04.396Z,9.30
2023-04-20T09:37:31.066Z,9.40
2023-04-20T09:40:00.387Z,9.50
2023-04-20T09:42:28.792Z,9.60
2023-04-20T09:44:55.967Z,9.70
2023-04-20T09:47:23.007Z,9.80
2023-04-20T09:49:50.710Z,9.70
2023-04-20T09:52:18.627Z,9.70
2023-04-20T09:54:46.099Z,9.90
2023-04-20T09:57:13.782Z,10.00
2023-04-20T09:59:44.125Z,10.20
2023-04-20T10:02:12.514Z,10.20
2023-04-20T10:04:54.706Z,10.10
2023-04-20T10:07:29.820Z,10.10
2023-04-20T10:10:05.159Z,10.20
2023-04-20T10:12:32.099Z,10.30
2023-04-20T10:15:00.688Z,10.30
2023-04-20T10:17:32.218Z,10.30
2023-04-20T10:19:59.399Z,10.30
2023-04-20T10:22:32.635Z,10.30
2023-04-20T10:25:00.745Z,10.30
2023-04-20T10:27:28.072Z,10.30
2023-04-20T10:29:54.721Z,10.20
2023-04-20T10:32:29.109Z,10.10
2023-04-20T10:35:07.693Z,10.10
2023-04-20T10:37:35.368Z,10.00
2023-04-20T10:40:06.843Z,9.80
2023-04-20T10:42:46.722Z,9.60
2023-04-20T10:45:13.476Z,9.50
2023-04-20T10:47:44.998Z,9.50
2023-04-20T10:50:13.942Z,9.50
2023-04-20T10:52:43.153Z,9.50
2023-04-20T10:55:24.251Z,9.50
2023-04-20T10:57:51.316Z,9.50
2023-04-20T11:00:26.603Z,9.50
2023-04-20T11:02:55.016Z,9.60
2023-04-20T11:05:23.336Z,9.70
2023-04-20T11:07:59.456Z,9.70
2023-04-20T11:10:38.773Z,9.80
2023-04-20T11:13:05.645Z,10.00
2023-04-20T11:15:33.548Z,10.10
2023-04-20T11:18:11.582Z,10.20
2023-04-20T11:20:49.956Z,10.30
2023-04-20T11:23:16.714Z,10.40
2023-04-20T11:25:55.261Z,10.40
2023-04-20T11:28:22.139Z,10.40
2023-04-20T11:30:50.668Z,10.40
2023-04-20T11:33:30.545Z,10.60
2023-04-20T11:35:58.357Z,10.80
2023-04-20T11:38:33.175Z,10.90
2023-04-20T11:41:04.522Z,11.00
2023-04-20T11:43:32.130Z,10.90
2023-04-20T11:45:59.714Z,10.80
2023-04-20T11:48:27.449Z,10.50
2023-04-20T11:50:54.078Z,10.30
2023-04-20T11:53:20.944Z,10.10
2023-04-20T11:55:47.706Z,10.00
2023-04-20T11:58:14.311Z,9.80
2023-04-20T12:00:41.064Z,9.80
2023-04-20T12:03:07.836Z,9.70
2023-04-20T12:05:34.582Z,9.60
2023-04-20T12:08:01.203Z,9.60
2023-04-20T12:10:27.989Z,9.60
2023-04-20T12:12:54.794Z,9.60
2023-04-20T12:15:21.400Z,9.50
2023-04-20T12:17:48.078Z,9.50
2023-04-20T12:20:15.024Z,9.50
2023-04-20T12:22:41.708Z,9.40
2023-04-20T12:25:08.567Z,9.30
2023-04-20T12:27:35.215Z,9.30
2023-04-20T12:30:01.845Z,9.40
2023-04-20T12:32:28.779Z,9.30
2023-04-20T12:34:55.881Z,9.20
2023-04-20T12:37:22.518Z,9.20
2023-04-20T12:39:49.159Z,9.10
2023-04-20T12:42:15.884Z,9.00
2023-04-20T12:44:42.502Z,8.90
2023-04-20T12:47:09.302Z,8.90
2023-04-20T12:49:36.002Z,8.80
2023-04-20T12:52:02.623Z,8.90
2023-04-20T12:54:29.208Z,8.80
2023-04-20T12:56:55.921Z,8.80
2023-04-20T12:59:22.655Z,8.90
2023-04-20T13:01:49.343Z,8.90
2023-04-20T13:04:17.380Z,9.00
2023-04-20T13:06:44.439Z,9.00
2023-04-20T13:09:11.396Z,9.00
2023-04-20T13:11:38.037Z,9.00
2023-04-20T13:14:04.893Z,9.00
2023-04-20T13:16:31.535Z,9.10
2023-04-20T13:18:58.162Z,9.20
2023-04-20T13:21:24.774Z,9.20
2023-04-20T13:23:52.453Z,9.10
2023-04-20T13:26:20.500Z,9.20
2023-04-20T13:28:47.157Z,9.20
2023-04-20T13:31:14.352Z,9.30
2023-04-20T13:33:41.245Z,9.40
2023-04-20T13:36:08.921Z,9.40
2023-04-20T13:38:35.865Z,9.50
2023-04-20T13:41:02.563Z,9.60
2023-04-20T13:43:29.297Z,9.60
2023-04-20T13:45:56.100Z,9.60
2023-04-20T13:48:22.821Z,9.60
2023-04-20T13:50:49.483Z,9.70
2023-04-20T13:53:16.233Z,9.80
2023-04-20T13:55:42.867Z,9.80
2023-04-20T13:58:09.487Z,10.00
2023-04-20T14:00:36.258Z,10.20
2023-04-20T14:03:03.206Z,10.40
2023-04-20T14:05:30.048Z,10.50
2023-04-20T14:08:01.258Z,10.50
2023-04-20T14:10:28.500Z,10.50
2023-04-20T14:12:55.288Z,10.50
2023-04-20T14:15:21.922Z,10.40
2023-04-20T14:17:51.738Z,10.30
2023-04-20T14:20:19.113Z,10.10
2023-04-20T14:22:45.691Z,10.00
2023-04-20T14:25:12.380Z,10.00
2023-04-20T14:27:39.092Z,10.00
2023-04-20T14:30:06.416Z,10.00
2023-04-20T14:32:34.785Z,9.90
2023-04-20T14:35:03.242Z,9.90
2023-04-20T14:37:31.290Z,9.90
2023-04-20T14:39:57.895Z,9.80
2023-04-20T14:42:24.541Z,9.80
2023-04-20T14:44:51.171Z,9.80
2023-04-20T14:47:18.282Z,9.80
2023-04-20T14:49:45.076Z,9.70
2023-04-20T14:52:12.052Z,9.70
2023-04-20T14:54:38.830Z,9.70
2023-04-20T14:57:05.496Z,9.70
2023-04-20T14:59:33.768Z,9.80
2023-04-20T15:02:03.468Z,9.80
2023-04-20T15:04:31.055Z,9.80
2023-04-20T15:06:58.245Z,9.90
2023-04-20T15:09:25.382Z,10.00
2023-04-20T15:11:52.000Z,10.00
2023-04-20T15:14:18.782Z,10.10
2023-04-20T15:16:45.554Z,10.10
2023-04-20T15:19:12.266Z,10.10
2023-04-20T15:21:38.863Z,10.10
2023-04-20T15:24:05.998Z,10.10
2023-04-20T15:26:32.584Z,10.10
2023-04-20T15:28:59.172Z,10.10
2023-04-20T15:31:25.870Z,10.10
2023-04-20T15:33:52.491Z,10.20
2023-04-20T15:36:19.693Z,10.20
2023-04-20T15:38:46.578Z,10.20
2023-04-20T15:41:13.262Z,10.20
2023-04-20T15:43:39.855Z,10.20
2023-04-20T15:46:06.631Z,10.20
2023-04-20T15:48:33.343Z,10.20
2023-04-20T15:51:00.033Z,10.30
2023-04-20T15:53:26.812Z,10.30
2023-04-20T15:55:53.436Z,10.40
2023-04-20T15:58:20.156Z,10.40
2023-04-20T16:00:46.904Z,10.40
2023-04-20T16:03:13.755Z,10.50
2023-04-20T16:05:40.609Z,11.00
2023-04-20T16:08:09.434Z,11.60
2023-04-20T16:10:36.209Z,12.10
2023-04-20T16:13:03.742Z,12.30
2023-04-20T16:15:30.558Z,12.60
2023-04-20T16:17:58.553Z,12.70
2023-04-20T16:20:25.195Z,12.90
2023-04-20T16:22:51.795Z,13.30
2023-04-20T16:25:23.007Z,13.70
2023-04-20T16:27:51.510Z,13.60
2023-04-20T16:30:18.354Z,13.40
2023-04-20T16:32:45.099Z,13.60
2023-04-20T16:35:11.739Z,13.50
2023-04-20T16:37:38.352Z,13.20
2023-04-20T16:40:06.056Z,12.80
2023-04-20T16:42:32.775Z,12.50
2023-04-20T16:44:59.435Z,12.50
2023-04-20T16:47:26.070Z,12.70
2023-04-20T16:49:52.779Z,13.00
2023-04-20T16:52:19.428Z,13.20
2023-04-20T16:54:46.101Z,13.10
2023-04-20T16:57:18.878Z,12.90
2023-04-20T16:59:45.876Z,12.70
2023-04-20T17:02:12.823Z,12.10
2023-04-20T17:04:39.584Z,11.70
2023-04-20T17:07:06.243Z,11.40
2023-04-20T17:09:32.946Z,11.20
2023-04-20T17:11:59.647Z,10.90
2023-04-20T17:14:26.363Z,10.80
2023-04-20T17:16:54.190Z,10.60
2023-04-20T17:19:20.936Z,10.50
2023-04-20T17:21:47.546Z,10.40
2023-04-20T17:24:14.653Z,10.30
2023-04-20T17:26:41.401Z,10.20
2023-04-20T17:29:08.056Z,10.10
2023-04-20T17:31:34.792Z,10.10
2023-04-20T17:34:01.578Z,10.00
2023-04-20T17:36:28.282Z,10.00
2023-04-20T17:38:54.932Z,9.90
2023-04-20T17:41:21.614Z,9.90
2023-04-20T17:43:50.862Z,9.80
2023-04-20T17:46:17.574Z,9.80
2023-04-20T17:48:44.301Z,9.70
2023-04-20T17:51:13.662Z,9.70
2023-04-20T17:53:40.553Z,9.70
2023-04-20T17:56:07.264Z,9.60
2023-04-20T17:58:33.879Z,9.60
2023-04-20T18:01:00.826Z,9.60
2023-04-20T18:03:28.494Z,9.60
2023-04-20T18:05:55.233Z,9.50
2023-04-20T18:08:23.156Z,9.50
2023-04-20T18:10:49.886Z,9.40
2023-04-20T18:13:16.660Z,9.40
2023-04-20T18:15:43.485Z,9.40
2023-04-20T18:18:10.183Z,9.30
2023-04-20T18:20:36.854Z,9.30
2023-04-20T18:23:03.474Z,9.30
2023-04-20T18:25:30.203Z,9.20
2023-04-20T18:27:58.871Z,9.10
2023-04-20T18:30:25.587Z,8.80
2023-04-20T18:32:53.604Z,9.00
2023-04-20T18:35:20.310Z,9.00
2023-04-20T18:37:46.946Z,8.90
2023-04-20T18:40:15.495Z,8.80
2023-04-20T18:42:42.977Z,8.70
2023-04-20T18:45:11.291Z,8.60
2023-04-20T18:47:37.970Z,8.50
2023-04-20T18:50:05.762Z,8.50
2023-04-20T18:52:33.333Z,8.40
2023-04-20T18:54:59.982Z,8.30
2023-04-20T18:57:28.920Z,8.30
2023-04-20T18:59:56.428Z,8.20
2023-04-20T19:02:23.596Z,8.20
2023-04-20T19:04:53.273Z,8.20
2023-04-20T19:07:20.654Z,8.20
2023-04-20T19:09:47.270Z,8.20
2023-04-20T19:12:13.885Z,8.30
2023-04-20T19:14:40.478Z,8.30
2023-04-20T19:17:07.856Z,8.30
2023-04-20T19:19:34.997Z,8.30
2023-04-20T19:22:03.302Z,8.30
2023-04-20T19:24:32.003Z,8.30
2023-04-20T19:26:59.089Z,8.20
2023-04-20T19:29:25.926Z,8.20
2023-04-20T19:31:52.565Z,8.20
2023-04-20T19:34:19.500Z,8.20
2023-04-20T19:36:46.316Z,8.20
2023-04-20T19:39:12.924Z,8.10
2023-04-20T19:41:39.616Z,8.10
2023-04-20T19:44:06.512Z,8.10
2023-04-20T19:46:33.637Z,8.10
2023-04-20T19:49:01.173Z,8.10
2023-04-20T19:51:27.866Z,8.00
2023-04-20T19:53:54.595Z,8.00
2023-04-20T19:56:21.241Z,7.90
2023-04-20T19:58:47.895Z,7.80
2023-04-20T20:01:14.642Z,7.80
2023-04-20T20:03:42.894Z,7.70
2023-04-20T20:06:09.979Z,7.60
2023-04-20T20:08:36.694Z,7.60
2023-04-20T20:11:03.884Z,7.60
2023-04-20T20:13:30.566Z,7.50
2023-04-20T20:15:58.700Z,7.50
2023-04-20T20:18:25.669Z,7.40
2023-04-20T20:20:52.396Z,7.40
2023-04-20T20:23:19.108Z,7.30
2023-04-20T20:25:46.027Z,7.30
2023-04-20T20:28:12.676Z,7.30
2023-04-20T20:30:41.368Z,7.20
2023-04-20T20:33:08.051Z,7.20
2023-04-20T20:35:34.907Z,7.20
2023-04-20T20:38:01.569Z,7.20
2023-04-20T20:40:28.232Z,7.20
2023-04-20T20:42:54.880Z,7.20
2023-04-20T20:45:21.840Z,7.10
2023-04-20T20:47:48.672Z,7.10
2023-04-20T20:50:16.246Z,7.00
2023-04-20T20:52:42.978Z,7.00
2023-04-20T20:55:10.280Z,6.90
2023-04-20T20:57:37.105Z,6.80
2023-04-20T21:00:09.914Z,6.80
2023-04-20T21:02:37.345Z,6.80
2023-04-20T21:05:04.755Z,6.80
2023-04-20T21:07:31.532Z,6.70
2023-04-20T21:09:58.164Z,6.60
2023-04-20T21:12:24.841Z,6.60
2023-04-20T21:14:52.195Z,6.50
2023-04-20T21:17:19.385Z,6.60
2023-04-20T21:19:46.051Z,6.60
2023-04-20T21:22:12.692Z,6.60
2023-04-20T21:24:39.333Z,6.60
2023-04-20T21:27:06.134Z,6.60
2023-04-20T21:29:32.930Z,6.60
2023-04-20T21:31:59.992Z,6.70
2023-04-20T21:34:27.307Z,6.70
2023-04-20T21:36:56.144Z,6.70
2023-04-20T21:39:22.761Z,6.80
2023-04-20T21:41:49.457Z,6.80
2023-04-20T21:44:16.044Z,6.80
2023-04-20T21:46:42.698Z,6.80
2023-04-20T21:49:09.362Z,6.80
2023-04-20T21:51:36.043Z,6.80
2023-04-20T21:54:02.665Z,6.80
2023-04-20T21:56:29.256Z,6.80
2023-04-20T21:58:55.882Z,6.80
2023-04-20T22:01:22.576Z,6.90
2023-04-20T22:03:49.435Z,6.90
2023-04-20T22:06:16.108Z,7.00
2023-04-20T22:08:42.777Z,7.00
2023-04-20T22:11:09.630Z,7.00
2023-04-20T22:13:36.776Z,7.00
2023-04-20T22:16:03.901Z,7.00
2023-04-20T22:18:30.723Z,7.00
2023-04-20T22:20:57.780Z,6.90
2023-04-20T22:23:24.438Z,6.90
2023-04-20T22:25:51.131Z,6.80
2023-04-20T22:28:17.821Z,6.80
2023-04-20T22:30:44.433Z,6.80
2023-04-20T22:33:11.097Z,6.80
2023-04-20T22:35:37.796Z,6.90
2023-04-20T22:38:04.594Z,6.90
2023-04-20T22:40:31.362Z,6.90
2023-04-20T22:42:57.959Z,6.90
2023-04-20T22:45:24.609Z,6.90
2023-04-20T22:47:51.275Z,6.90
2023-04-20T22:50:18.529Z,6.90
2023-04-20T22:52:45.274Z,6.90
2023-04-20T22:55:12.081Z,6.90
2023-04-20T22:57:39.057Z,7.00
2023-04-20T23:00:13.844Z,6.90
2023-04-20T23:02:41.089Z,6.90
2023-04-20T23:05:08.205Z,6.90
2023-04-20T23:07:34.989Z,6.80
2023-04-20T23:10:02.676Z,6.80
2023-04-20T23:12:29.411Z,6.80
2023-04-20T23:15:00.290Z,6.70
2023-04-20T23:17:28.264Z,6.70
2023-04-20T23:19:55.380Z,6.70
2023-04-20T23:22:22.037Z,6.70
2023-04-20T23:24:48.711Z,6.60
2023-04-20T23:27:15.417Z,6.60
2023-04-20T23:29:42.058Z,6.60
2023-04-20T23:32:08.762Z,6.60
2023-04-20T23:34:35.477Z,6.60
2023-04-20T23:37:02.120Z,6.60
2023-04-20T23:39:28.739Z,6.60
2023-04-20T23:41:56.301Z,6.70
2023-04-20T23:44:22.948Z,6.60
2023-04-20T23:46:49.599Z,6.60
2023-04-20T23:49:16.274Z,6.60
2023-04-20T23:51:43.036Z,6.60
2023-04-20T23:54:09.644Z,6.60
2023-04-20T23:56:36.210Z,6.60
2023-04-20T23:59:02.824Z,6.60
